sensor_id;sensor_type;location;lat;lon;timestamp;temperature;humidity
71082;SHT31;58740;50.672;18.690;2023-01-09T00:01:27;5.56;81.58
71082;SHT31;58740;50.672;18.690;2023-01-09T00:04:03;5.53;81.60
71082;SHT31;58740;50.672;18.690;2023-01-09T00:06:31;5.53;81.61
71082;SHT31;58740;50.672;18.690;2023-01-09T00:09:00;5.54;81.59
71082;SHT31;58740;50.672;18.690;2023-01-09T00:11:28;5.54;81.57
71082;SHT31;58740;50.672;18.690;2023-01-09T00:13:56;5.54;81.51
71082;SHT31;58740;50.672;18.690;2023-01-09T00:16:24;5.53;81.57
71082;SHT31;58740;50.672;18.690;2023-01-09T00:18:53;5.50;81.51
71082;SHT31;58740;50.672;18.690;2023-01-09T00:21:20;5.45;81.57
71082;SHT31;58740;50.672;18.690;2023-01-09T00:23:48;5.43;81.71
71082;SHT31;58740;50.672;18.690;2023-01-09T00:26:20;5.41;81.74
71082;SHT31;58740;50.672;18.690;2023-01-09T00:28:50;5.39;81.84
71082;SHT31;58740;50.672;18.690;2023-01-09T00:31:20;5.39;81.81
71082;SHT31;58740;50.672;18.690;2023-01-09T00:33:55;5.39;81.89
71082;SHT31;58740;50.672;18.690;2023-01-09T00:36:33;5.39;81.84
71082;SHT31;58740;50.672;18.690;2023-01-09T00:39:01;5.39;81.75
71082;SHT31;58740;50.672;18.690;2023-01-09T00:41:36;5.37;81.90
71082;SHT31;58740;50.672;18.690;2023-01-09T00:44:13;5.36;82.06
71082;SHT31;58740;50.672;18.690;2023-01-09T00:46:48;5.35;81.86
71082;SHT31;58740;50.672;18.690;2023-01-09T00:49:21;5.30;81.98
71082;SHT31;58740;50.672;18.690;2023-01-09T00:51:50;5.29;81.98
71082;SHT31;58740;50.672;18.690;2023-01-09T00:54:21;5.27;81.96
71082;SHT31;58740;50.672;18.690;2023-01-09T00:56:49;5.26;82.17
71082;SHT31;58740;50.672;18.690;2023-01-09T00:59:17;5.26;82.19
71082;SHT31;58740;50.672;18.690;2023-01-09T01:01:45;5.27;82.12
71082;SHT31;58740;50.672;18.690;2023-01-09T01:04:13;5.27;82.19
71082;SHT31;58740;50.672;18.690;2023-01-09T01:07:07;5.27;82.09
71082;SHT31;58740;50.672;18.690;2023-01-09T01:09:53;5.26;82.16
71082;SHT31;58740;50.672;18.690;2023-01-09T01:12:21;5.25;82.13
71082;SHT31;58740;50.672;18.690;2023-01-09T01:14:50;5.24;82.17
71082;SHT31;58740;50.672;18.690;2023-01-09T01:17:19;5.24;82.24
71082;SHT31;58740;50.672;18.690;2023-01-09T01:19:47;5.21;82.22
71082;SHT31;58740;50.672;18.690;2023-01-09T01:22:15;5.21;82.19
71082;SHT31;58740;50.672;18.690;2023-01-09T01:24:43;5.21;82.24
71082;SHT31;58740;50.672;18.690;2023-01-09T01:27:10;5.18;82.22
71082;SHT31;58740;50.672;18.690;2023-01-09T01:29:38;5.16;82.26
71082;SHT31;58740;50.672;18.690;2023-01-09T01:32:06;5.17;82.41
71082;SHT31;58740;50.672;18.690;2023-01-09T01:34:34;5.17;82.38
71082;SHT31;58740;50.672;18.690;2023-01-09T01:37:02;5.17;82.35
71082;SHT31;58740;50.672;18.690;2023-01-09T01:39:29;5.15;82.32
71082;SHT31;58740;50.672;18.690;2023-01-09T01:41:57;5.13;82.41
71082;SHT31;58740;50.672;18.690;2023-01-09T02:01:24;5.11;82.56
71082;SHT31;58740;50.672;18.690;2023-01-09T02:03:54;5.12;82.55
71082;SHT31;58740;50.672;18.690;2023-01-09T02:06:27;5.12;82.25
71082;SHT31;58740;50.672;18.690;2023-01-09T02:08:59;5.12;82.27
71082;SHT31;58740;50.672;18.690;2023-01-09T02:11:30;5.09;82.37
71082;SHT31;58740;50.672;18.690;2023-01-09T02:13:59;5.07;82.50
71082;SHT31;58740;50.672;18.690;2023-01-09T02:22:36;5.01;82.54
71082;SHT31;58740;50.672;18.690;2023-01-09T02:31:23;4.92;82.59
71082;SHT31;58740;50.672;18.690;2023-01-09T02:34:17;4.87;82.71
71082;SHT31;58740;50.672;18.690;2023-01-09T02:42:46;4.71;83.14
71082;SHT31;58740;50.672;18.690;2023-01-09T02:45:15;4.71;83.24
71082;SHT31;58740;50.672;18.690;2023-01-09T02:47:44;4.70;83.27
71082;SHT31;58740;50.672;18.690;2023-01-09T02:50:18;4.69;83.34
71082;SHT31;58740;50.672;18.690;2023-01-09T02:56:13;4.71;83.40
71082;SHT31;58740;50.672;18.690;2023-01-09T02:58:54;4.72;83.47
71082;SHT31;58740;50.672;18.690;2023-01-09T03:02:07;4.77;83.49
71082;SHT31;58740;50.672;18.690;2023-01-09T03:07:57;4.78;83.41
71082;SHT31;58740;50.672;18.690;2023-01-09T03:13:08;4.81;83.52
71082;SHT31;58740;50.672;18.690;2023-01-09T03:15:39;4.78;83.59
71082;SHT31;58740;50.672;18.690;2023-01-09T03:18:11;4.80;83.64
71082;SHT31;58740;50.672;18.690;2023-01-09T03:20:42;4.81;83.67
71082;SHT31;58740;50.672;18.690;2023-01-09T03:23:10;4.82;83.74
71082;SHT31;58740;50.672;18.690;2023-01-09T03:25:38;4.81;83.80
71082;SHT31;58740;50.672;18.690;2023-01-09T03:28:07;4.82;83.80
71082;SHT31;58740;50.672;18.690;2023-01-09T03:30:51;4.84;83.84
71082;SHT31;58740;50.672;18.690;2023-01-09T03:33:19;4.84;83.85
71082;SHT31;58740;50.672;18.690;2023-01-09T03:35:47;4.83;83.95
71082;SHT31;58740;50.672;18.690;2023-01-09T03:38:15;4.84;83.90
71082;SHT31;58740;50.672;18.690;2023-01-09T03:40:43;4.88;83.88
71082;SHT31;58740;50.672;18.690;2023-01-09T03:43:11;4.91;83.77
71082;SHT31;58740;50.672;18.690;2023-01-09T03:45:38;4.93;83.70
71082;SHT31;58740;50.672;18.690;2023-01-09T03:48:06;4.94;83.69
71082;SHT31;58740;50.672;18.690;2023-01-09T03:50:34;4.95;83.68
71082;SHT31;58740;50.672;18.690;2023-01-09T03:53:02;4.96;83.65
71082;SHT31;58740;50.672;18.690;2023-01-09T03:55:30;4.98;83.57
71082;SHT31;58740;50.672;18.690;2023-01-09T03:57:58;4.98;83.58
71082;SHT31;58740;50.672;18.690;2023-01-09T04:00:25;4.97;83.58
71082;SHT31;58740;50.672;18.690;2023-01-09T04:02:53;4.97;83.60
71082;SHT31;58740;50.672;18.690;2023-01-09T04:05:21;4.95;83.63
71082;SHT31;58740;50.672;18.690;2023-01-09T04:07:48;4.96;83.60
71082;SHT31;58740;50.672;18.690;2023-01-09T04:10:16;4.93;83.60
71082;SHT31;58740;50.672;18.690;2023-01-09T04:12:44;4.94;83.61
71082;SHT31;58740;50.672;18.690;2023-01-09T04:15:12;4.95;83.59
71082;SHT31;58740;50.672;18.690;2023-01-09T04:17:39;4.97;83.51
71082;SHT31;58740;50.672;18.690;2023-01-09T04:20:08;4.99;83.45
71082;SHT31;58740;50.672;18.690;2023-01-09T04:22:36;4.99;83.41
71082;SHT31;58740;50.672;18.690;2023-01-09T04:25:05;4.98;83.48
71082;SHT31;58740;50.672;18.690;2023-01-09T04:27:33;4.99;83.41
71082;SHT31;58740;50.672;18.690;2023-01-09T04:30:02;4.99;83.40
71082;SHT31;58740;50.672;18.690;2023-01-09T04:32:30;4.97;83.44
71082;SHT31;58740;50.672;18.690;2023-01-09T04:34:58;4.94;83.49
71082;SHT31;58740;50.672;18.690;2023-01-09T04:37:26;4.94;83.49
71082;SHT31;58740;50.672;18.690;2023-01-09T04:39:54;4.94;83.47
71082;SHT31;58740;50.672;18.690;2023-01-09T04:42:22;4.95;83.42
71082;SHT31;58740;50.672;18.690;2023-01-09T04:44:50;4.97;83.42
71082;SHT31;58740;50.672;18.690;2023-01-09T04:47:20;4.99;83.43
71082;SHT31;58740;50.672;18.690;2023-01-09T04:49:48;4.98;83.33
71082;SHT31;58740;50.672;18.690;2023-01-09T04:52:16;4.96;83.44
71082;SHT31;58740;50.672;18.690;2023-01-09T04:54:43;4.94;83.33
71082;SHT31;58740;50.672;18.690;2023-01-09T04:57:11;4.91;83.37
71082;SHT31;58740;50.672;18.690;2023-01-09T04:59:39;4.91;83.39
71082;SHT31;58740;50.672;18.690;2023-01-09T05:02:07;4.93;83.35
71082;SHT31;58740;50.672;18.690;2023-01-09T05:04:35;4.96;83.31
71082;SHT31;58740;50.672;18.690;2023-01-09T05:07:03;4.98;83.29
71082;SHT31;58740;50.672;18.690;2023-01-09T05:09:31;5.00;83.27
71082;SHT31;58740;50.672;18.690;2023-01-09T05:11:59;5.01;83.15
71082;SHT31;58740;50.672;18.690;2023-01-09T05:14:28;5.00;83.18
71082;SHT31;58740;50.672;18.690;2023-01-09T05:16:56;4.99;83.06
71082;SHT31;58740;50.672;18.690;2023-01-09T05:19:23;4.95;83.04
71082;SHT31;58740;50.672;18.690;2023-01-09T05:21:51;4.92;83.11
71082;SHT31;58740;50.672;18.690;2023-01-09T05:24:19;4.90;83.14
71082;SHT31;58740;50.672;18.690;2023-01-09T05:26:46;4.88;83.25
71082;SHT31;58740;50.672;18.690;2023-01-09T05:29:14;4.89;83.29
71082;SHT31;58740;50.672;18.690;2023-01-09T05:31:42;4.90;83.31
71082;SHT31;58740;50.672;18.690;2023-01-09T05:34:10;4.89;83.27
71082;SHT31;58740;50.672;18.690;2023-01-09T05:36:38;4.87;83.30
71082;SHT31;58740;50.672;18.690;2023-01-09T05:39:05;4.87;83.30
71082;SHT31;58740;50.672;18.690;2023-01-09T05:41:33;4.86;83.30
71082;SHT31;58740;50.672;18.690;2023-01-09T05:44:01;4.86;83.30
71082;SHT31;58740;50.672;18.690;2023-01-09T05:46:31;4.84;83.36
71082;SHT31;58740;50.672;18.690;2023-01-09T05:48:59;4.83;83.44
71082;SHT31;58740;50.672;18.690;2023-01-09T05:51:27;4.84;83.44
71082;SHT31;58740;50.672;18.690;2023-01-09T05:53:54;4.86;83.48
71082;SHT31;58740;50.672;18.690;2023-01-09T05:56:22;4.91;83.48
71082;SHT31;58740;50.672;18.690;2023-01-09T05:58:50;4.95;83.40
71082;SHT31;58740;50.672;18.690;2023-01-09T06:01:18;4.96;83.31
71082;SHT31;58740;50.672;18.690;2023-01-09T06:03:48;4.97;83.30
71082;SHT31;58740;50.672;18.690;2023-01-09T06:06:16;4.96;83.37
71082;SHT31;58740;50.672;18.690;2023-01-09T06:08:44;4.95;83.44
71082;SHT31;58740;50.672;18.690;2023-01-09T06:11:11;4.95;83.50
71082;SHT31;58740;50.672;18.690;2023-01-09T06:13:39;4.95;83.50
71082;SHT31;58740;50.672;18.690;2023-01-09T06:16:07;4.95;83.56
71082;SHT31;58740;50.672;18.690;2023-01-09T06:18:35;4.97;83.60
71082;SHT31;58740;50.672;18.690;2023-01-09T06:21:03;4.99;83.59
71082;SHT31;58740;50.672;18.690;2023-01-09T06:23:31;5.01;83.59
71082;SHT31;58740;50.672;18.690;2023-01-09T06:25:59;5.01;83.60
71082;SHT31;58740;50.672;18.690;2023-01-09T06:28:27;5.03;83.63
71082;SHT31;58740;50.672;18.690;2023-01-09T06:30:55;5.05;83.69
71082;SHT31;58740;50.672;18.690;2023-01-09T06:33:25;5.10;83.67
71082;SHT31;58740;50.672;18.690;2023-01-09T06:35:53;5.12;83.60
71082;SHT31;58740;50.672;18.690;2023-01-09T06:38:21;5.13;83.60
71082;SHT31;58740;50.672;18.690;2023-01-09T06:40:49;5.14;83.69
71082;SHT31;58740;50.672;18.690;2023-01-09T06:43:17;5.14;83.67
71082;SHT31;58740;50.672;18.690;2023-01-09T06:45:44;5.17;83.67
71082;SHT31;58740;50.672;18.690;2023-01-09T06:48:12;5.19;83.71
71082;SHT31;58740;50.672;18.690;2023-01-09T06:50:40;5.21;83.76
71082;SHT31;58740;50.672;18.690;2023-01-09T06:53:08;5.24;83.78
71082;SHT31;58740;50.672;18.690;2023-01-09T06:55:37;5.25;83.88
71082;SHT31;58740;50.672;18.690;2023-01-09T06:58:04;5.28;83.90
71082;SHT31;58740;50.672;18.690;2023-01-09T07:00:32;5.31;83.92
71082;SHT31;58740;50.672;18.690;2023-01-09T07:03:00;5.34;84.00
71082;SHT31;58740;50.672;18.690;2023-01-09T07:05:28;5.37;84.03
71082;SHT31;58740;50.672;18.690;2023-01-09T07:07:57;5.39;84.15
71082;SHT31;58740;50.672;18.690;2023-01-09T07:10:25;5.39;84.31
71082;SHT31;58740;50.672;18.690;2023-01-09T07:12:53;5.42;84.37
71082;SHT31;58740;50.672;18.690;2023-01-09T07:15:21;5.43;84.44
71082;SHT31;58740;50.672;18.690;2023-01-09T07:17:52;5.45;84.48
71082;SHT31;58740;50.672;18.690;2023-01-09T07:20:20;5.47;84.55
71082;SHT31;58740;50.672;18.690;2023-01-09T07:22:48;5.49;84.63
71082;SHT31;58740;50.672;18.690;2023-01-09T07:25:16;5.49;84.79
71082;SHT31;58740;50.672;18.690;2023-01-09T07:27:44;5.51;84.93
71082;SHT31;58740;50.672;18.690;2023-01-09T07:30:12;5.52;85.16
71082;SHT31;58740;50.672;18.690;2023-01-09T07:32:41;5.55;85.31
71082;SHT31;58740;50.672;18.690;2023-01-09T07:35:09;5.55;85.64
71082;SHT31;58740;50.672;18.690;2023-01-09T07:37:37;5.55;85.73
71082;SHT31;58740;50.672;18.690;2023-01-09T07:40:05;5.56;85.88
71082;SHT31;58740;50.672;18.690;2023-01-09T07:42:35;5.59;85.93
71082;SHT31;58740;50.672;18.690;2023-01-09T07:45:03;5.61;86.04
71082;SHT31;58740;50.672;18.690;2023-01-09T07:47:32;5.64;86.27
71082;SHT31;58740;50.672;18.690;2023-01-09T07:49:59;5.66;86.40
71082;SHT31;58740;50.672;18.690;2023-01-09T07:52:27;5.68;86.52
71082;SHT31;58740;50.672;18.690;2023-01-09T07:54:55;5.72;86.70
71082;SHT31;58740;50.672;18.690;2023-01-09T07:57:23;5.74;86.61
71082;SHT31;58740;50.672;18.690;2023-01-09T07:59:51;5.79;86.62
71082;SHT31;58740;50.672;18.690;2023-01-09T08:02:19;5.82;86.70
71082;SHT31;58740;50.672;18.690;2023-01-09T08:04:47;5.84;86.61
71082;SHT31;58740;50.672;18.690;2023-01-09T08:07:14;5.88;86.71
71082;SHT31;58740;50.672;18.690;2023-01-09T08:09:42;5.90;86.69
71082;SHT31;58740;50.672;18.690;2023-01-09T08:12:10;5.95;86.59
71082;SHT31;58740;50.672;18.690;2023-01-09T08:14:37;5.99;86.54
71082;SHT31;58740;50.672;18.690;2023-01-09T08:17:05;5.99;86.52
71082;SHT31;58740;50.672;18.690;2023-01-09T08:19:33;6.00;86.52
71082;SHT31;58740;50.672;18.690;2023-01-09T08:22:01;5.99;86.64
71082;SHT31;58740;50.672;18.690;2023-01-09T08:24:29;5.99;86.81
71082;SHT31;58740;50.672;18.690;2023-01-09T08:26:59;5.99;86.89
71082;SHT31;58740;50.672;18.690;2023-01-09T08:29:26;5.99;86.97
71082;SHT31;58740;50.672;18.690;2023-01-09T08:31:56;6.01;86.94
71082;SHT31;58740;50.672;18.690;2023-01-09T08:34:24;6.03;87.11
71082;SHT31;58740;50.672;18.690;2023-01-09T08:36:52;6.03;87.20
71082;SHT31;58740;50.672;18.690;2023-01-09T08:39:20;6.05;87.26
71082;SHT31;58740;50.672;18.690;2023-01-09T08:41:48;6.07;87.38
71082;SHT31;58740;50.672;18.690;2023-01-09T08:44:34;6.08;87.43
71082;SHT31;58740;50.672;18.690;2023-01-09T08:47:21;6.10;87.56
71082;SHT31;58740;50.672;18.690;2023-01-09T08:49:50;6.13;87.70
71082;SHT31;58740;50.672;18.690;2023-01-09T08:52:18;6.14;87.70
71082;SHT31;58740;50.672;18.690;2023-01-09T08:54:46;6.16;87.72
71082;SHT31;58740;50.672;18.690;2023-01-09T08:57:13;6.18;87.84
71082;SHT31;58740;50.672;18.690;2023-01-09T08:59:41;6.21;87.81
71082;SHT31;58740;50.672;18.690;2023-01-09T09:02:09;6.25;87.86
71082;SHT31;58740;50.672;18.690;2023-01-09T09:04:37;6.27;87.97
71082;SHT31;58740;50.672;18.690;2023-01-09T09:07:04;6.30;87.97
71082;SHT31;58740;50.672;18.690;2023-01-09T09:09:32;6.32;88.03
71082;SHT31;58740;50.672;18.690;2023-01-09T09:12:00;6.37;88.00
71082;SHT31;58740;50.672;18.690;2023-01-09T09:14:28;6.41;88.08
71082;SHT31;58740;50.672;18.690;2023-01-09T09:17:14;6.46;88.30
71082;SHT31;58740;50.672;18.690;2023-01-09T09:19:42;6.49;88.46
71082;SHT31;58740;50.672;18.690;2023-01-09T09:22:09;6.53;88.47
71082;SHT31;58740;50.672;18.690;2023-01-09T09:24:37;6.57;88.57
71082;SHT31;58740;50.672;18.690;2023-01-09T09:27:05;6.61;88.59
71082;SHT31;58740;50.672;18.690;2023-01-09T09:29:33;6.66;88.54
71082;SHT31;58740;50.672;18.690;2023-01-09T09:32:00;6.69;88.62
71082;SHT31;58740;50.672;18.690;2023-01-09T09:34:28;6.73;88.64
71082;SHT31;58740;50.672;18.690;2023-01-09T09:36:56;6.75;88.65
71082;SHT31;58740;50.672;18.690;2023-01-09T09:39:24;6.78;88.80
71082;SHT31;58740;50.672;18.690;2023-01-09T09:48:00;6.84;88.75
71082;SHT31;58740;50.672;18.690;2023-01-09T09:57:05;6.92;88.60
71082;SHT31;58740;50.672;18.690;2023-01-09T09:59:43;6.94;88.70
71082;SHT31;58740;50.672;18.690;2023-01-09T10:02:23;6.96;88.70
71082;SHT31;58740;50.672;18.690;2023-01-09T10:04:58;6.98;88.59
71082;SHT31;58740;50.672;18.690;2023-01-09T10:07:35;7.00;88.61
71082;SHT31;58740;50.672;18.690;2023-01-09T10:10:10;7.03;88.48
71082;SHT31;58740;50.672;18.690;2023-01-09T10:13:03;7.06;88.60
71082;SHT31;58740;50.672;18.690;2023-01-09T10:15:56;7.07;88.63
71082;SHT31;58740;50.672;18.690;2023-01-09T10:24:15;7.16;88.64
71082;SHT31;58740;50.672;18.690;2023-01-09T10:26:55;7.19;88.78
71082;SHT31;58740;50.672;18.690;2023-01-09T10:35:21;7.27;88.79
71082;SHT31;58740;50.672;18.690;2023-01-09T10:38:18;7.33;88.72
71082;SHT31;58740;50.672;18.690;2023-01-09T10:41:02;7.38;88.76
71082;SHT31;58740;50.672;18.690;2023-01-09T10:43:44;7.39;88.73
71082;SHT31;58740;50.672;18.690;2023-01-09T10:46:28;7.45;88.85
71082;SHT31;58740;50.672;18.690;2023-01-09T10:49:16;7.48;88.88
71082;SHT31;58740;50.672;18.690;2023-01-09T10:51:46;7.51;88.66
71082;SHT31;58740;50.672;18.690;2023-01-09T10:54:19;7.56;88.74
71082;SHT31;58740;50.672;18.690;2023-01-09T10:56:52;7.59;88.61
71082;SHT31;58740;50.672;18.690;2023-01-09T10:59:23;7.64;88.57
71082;SHT31;58740;50.672;18.690;2023-01-09T11:01:52;7.67;88.61
71082;SHT31;58740;50.672;18.690;2023-01-09T11:04:25;7.69;88.54
71082;SHT31;58740;50.672;18.690;2023-01-09T11:06:59;7.73;88.53
71082;SHT31;58740;50.672;18.690;2023-01-09T11:09:55;7.78;88.49
71082;SHT31;58740;50.672;18.690;2023-01-09T11:12:34;7.82;88.38
71082;SHT31;58740;50.672;18.690;2023-01-09T11:17:42;7.90;88.20
71082;SHT31;58740;50.672;18.690;2023-01-09T11:20:29;7.94;88.13
71082;SHT31;58740;50.672;18.690;2023-01-09T11:22:57;8.00;88.07
71082;SHT31;58740;50.672;18.690;2023-01-09T11:25:26;8.04;87.94
71082;SHT31;58740;50.672;18.690;2023-01-09T11:30:35;8.06;88.09
71082;SHT31;58740;50.672;18.690;2023-01-09T11:33:19;8.07;87.96
71082;SHT31;58740;50.672;18.690;2023-01-09T11:35:55;8.08;88.00
71082;SHT31;58740;50.672;18.690;2023-01-09T11:38:25;8.07;87.99
71082;SHT31;58740;50.672;18.690;2023-01-09T11:40:55;8.08;88.03
71082;SHT31;58740;50.672;18.690;2023-01-09T11:43:34;8.10;88.12
71082;SHT31;58740;50.672;18.690;2023-01-09T11:46:07;8.13;88.13
71082;SHT31;58740;50.672;18.690;2023-01-09T11:48:39;8.18;88.13
71082;SHT31;58740;50.672;18.690;2023-01-09T11:51:23;8.23;88.00
71082;SHT31;58740;50.672;18.690;2023-01-09T11:56:44;8.26;88.08
71082;SHT31;58740;50.672;18.690;2023-01-09T11:59:15;8.27;88.10
71082;SHT31;58740;50.672;18.690;2023-01-09T12:05:00;8.30;88.03
71082;SHT31;58740;50.672;18.690;2023-01-09T12:08:16;8.30;88.03
71082;SHT31;58740;50.672;18.690;2023-01-09T12:11:06;8.35;88.00
71082;SHT31;58740;50.672;18.690;2023-01-09T12:25:34;8.54;88.07
71082;SHT31;58740;50.672;18.690;2023-01-09T12:40:08;8.59;87.78
71082;SHT31;58740;50.672;18.690;2023-01-09T12:46:17;8.60;87.74
71082;SHT31;58740;50.672;18.690;2023-01-09T13:00:15;8.60;87.61
71082;SHT31;58740;50.672;18.690;2023-01-09T13:08:23;8.58;87.63
71082;SHT31;58740;50.672;18.690;2023-01-09T13:11:08;8.58;87.65
71082;SHT31;58740;50.672;18.690;2023-01-09T13:17:20;8.59;87.71
71082;SHT31;58740;50.672;18.690;2023-01-09T13:19:56;8.58;87.68
71082;SHT31;58740;50.672;18.690;2023-01-09T13:22:24;8.60;87.74
71082;SHT31;58740;50.672;18.690;2023-01-09T13:27:39;8.62;87.56
71082;SHT31;58740;50.672;18.690;2023-01-09T13:30:18;8.63;87.50
71082;SHT31;58740;50.672;18.690;2023-01-09T13:35:48;8.69;87.39
71082;SHT31;58740;50.672;18.690;2023-01-09T13:38:19;8.70;87.33
71082;SHT31;58740;50.672;18.690;2023-01-09T13:44:00;8.69;87.32
71082;SHT31;58740;50.672;18.690;2023-01-09T14:08:04;8.62;87.37
71082;SHT31;58740;50.672;18.690;2023-01-09T14:10:45;8.62;87.39
71082;SHT31;58740;50.672;18.690;2023-01-09T14:16:26;8.62;87.51
71082;SHT31;58740;50.672;18.690;2023-01-09T14:21:54;8.69;87.33
71082;SHT31;58740;50.672;18.690;2023-01-09T14:24:38;8.68;87.19
71082;SHT31;58740;50.672;18.690;2023-01-09T14:33:03;8.59;87.11
71082;SHT31;58740;50.672;18.690;2023-01-09T14:35:39;8.58;87.10
71082;SHT31;58740;50.672;18.690;2023-01-09T14:41:37;8.56;87.05
71082;SHT31;58740;50.672;18.690;2023-01-09T14:47:27;8.55;87.01
71082;SHT31;58740;50.672;18.690;2023-01-09T14:52:36;8.56;87.02
71082;SHT31;58740;50.672;18.690;2023-01-09T14:55:18;8.58;86.99
71082;SHT31;58740;50.672;18.690;2023-01-09T15:03:45;8.47;86.61
71082;SHT31;58740;50.672;18.690;2023-01-09T15:06:22;8.44;86.66
71082;SHT31;58740;50.672;18.690;2023-01-09T15:11:55;8.40;86.47
71082;SHT31;58740;50.672;18.690;2023-01-09T15:14:35;8.35;86.41
71082;SHT31;58740;50.672;18.690;2023-01-09T15:17:43;8.34;86.41
71082;SHT31;58740;50.672;18.690;2023-01-09T15:20:03;8.33;86.45
71082;SHT31;58740;50.672;18.690;2023-01-09T15:22:36;8.34;86.30
71082;SHT31;58740;50.672;18.690;2023-01-09T15:27:54;8.35;86.20
71082;SHT31;58740;50.672;18.690;2023-01-09T15:30:32;8.35;86.16
71082;SHT31;58740;50.672;18.690;2023-01-09T15:33:10;8.36;86.14
71082;SHT31;58740;50.672;18.690;2023-01-09T15:35:46;8.37;86.06
71082;SHT31;58740;50.672;18.690;2023-01-09T15:38:20;8.35;86.01
71082;SHT31;58740;50.672;18.690;2023-01-09T15:40:51;8.33;85.98
71082;SHT31;58740;50.672;18.690;2023-01-09T15:43:26;8.30;85.96
71082;SHT31;58740;50.672;18.690;2023-01-09T15:45:56;8.28;86.00
71082;SHT31;58740;50.672;18.690;2023-01-09T15:53:40;8.24;85.96
71082;SHT31;58740;50.672;18.690;2023-01-09T15:58:57;8.21;85.70
71082;SHT31;58740;50.672;18.690;2023-01-09T16:01:27;8.16;85.73
71082;SHT31;58740;50.672;18.690;2023-01-09T16:04:11;8.13;85.77
71082;SHT31;58740;50.672;18.690;2023-01-09T16:06:44;8.11;85.76
71082;SHT31;58740;50.672;18.690;2023-01-09T16:09:26;8.09;85.69
71082;SHT31;58740;50.672;18.690;2023-01-09T16:11:57;8.07;85.75
71082;SHT31;58740;50.672;18.690;2023-01-09T16:17:06;8.04;85.70
71082;SHT31;58740;50.672;18.690;2023-01-09T16:19:52;8.05;85.65
71082;SHT31;58740;50.672;18.690;2023-01-09T16:22:28;8.06;85.72
71082;SHT31;58740;50.672;18.690;2023-01-09T16:25:02;8.05;85.62
71082;SHT31;58740;50.672;18.690;2023-01-09T16:31:01;8.05;85.72
71082;SHT31;58740;50.672;18.690;2023-01-09T16:33:34;8.05;85.68
71082;SHT31;58740;50.672;18.690;2023-01-09T16:36:19;8.05;85.65
71082;SHT31;58740;50.672;18.690;2023-01-09T16:38:48;8.04;85.63
71082;SHT31;58740;50.672;18.690;2023-01-09T16:41:16;8.03;85.69
71082;SHT31;58740;50.672;18.690;2023-01-09T16:44:13;8.00;85.60
71082;SHT31;58740;50.672;18.690;2023-01-09T16:46:41;7.96;85.67
71082;SHT31;58740;50.672;18.690;2023-01-09T16:49:15;7.93;85.77
71082;SHT31;58740;50.672;18.690;2023-01-09T16:51:50;7.93;85.73
71082;SHT31;58740;50.672;18.690;2023-01-09T16:54:18;7.92;85.77
71082;SHT31;58740;50.672;18.690;2023-01-09T16:56:47;7.92;85.74
71082;SHT31;58740;50.672;18.690;2023-01-09T16:59:20;7.94;85.67
71082;SHT31;58740;50.672;18.690;2023-01-09T17:01:51;7.93;85.62
71082;SHT31;58740;50.672;18.690;2023-01-09T17:04:21;7.93;85.62
71082;SHT31;58740;50.672;18.690;2023-01-09T17:06:52;7.91;85.58
71082;SHT31;58740;50.672;18.690;2023-01-09T17:09:20;7.89;85.58
71082;SHT31;58740;50.672;18.690;2023-01-09T17:11:54;7.86;85.64
71082;SHT31;58740;50.672;18.690;2023-01-09T17:14:21;7.86;85.56
71082;SHT31;58740;50.672;18.690;2023-01-09T17:16:49;7.86;85.60
71082;SHT31;58740;50.672;18.690;2023-01-09T17:19:18;7.89;85.53
71082;SHT31;58740;50.672;18.690;2023-01-09T17:21:47;7.89;85.45
71082;SHT31;58740;50.672;18.690;2023-01-09T17:24:15;7.88;85.37
71082;SHT31;58740;50.672;18.690;2023-01-09T17:27:01;7.85;85.31
71082;SHT31;58740;50.672;18.690;2023-01-09T17:29:48;7.82;85.27
71082;SHT31;58740;50.672;18.690;2023-01-09T17:32:16;7.80;85.29
71082;SHT31;58740;50.672;18.690;2023-01-09T17:34:45;7.78;85.22
71082;SHT31;58740;50.672;18.690;2023-01-09T17:37:13;7.78;85.31
71082;SHT31;58740;50.672;18.690;2023-01-09T17:39:44;7.78;85.34
71082;SHT31;58740;50.672;18.690;2023-01-09T17:42:12;7.79;85.24
71082;SHT31;58740;50.672;18.690;2023-01-09T17:44:40;7.81;85.14
71082;SHT31;58740;50.672;18.690;2023-01-09T17:47:14;7.81;85.14
71082;SHT31;58740;50.672;18.690;2023-01-09T17:49:42;7.82;85.03
71082;SHT31;58740;50.672;18.690;2023-01-09T17:52:10;7.83;85.01
71082;SHT31;58740;50.672;18.690;2023-01-09T17:54:38;7.81;84.94
71082;SHT31;58740;50.672;18.690;2023-01-09T17:57:08;7.80;84.83
71082;SHT31;58740;50.672;18.690;2023-01-09T17:59:42;7.78;84.83
71082;SHT31;58740;50.672;18.690;2023-01-09T18:02:18;7.75;84.76
71082;SHT31;58740;50.672;18.690;2023-01-09T18:04:46;7.76;84.86
71082;SHT31;58740;50.672;18.690;2023-01-09T18:07:14;7.77;84.82
71082;SHT31;58740;50.672;18.690;2023-01-09T18:09:43;7.77;84.71
71082;SHT31;58740;50.672;18.690;2023-01-09T18:12:11;7.77;84.71
71082;SHT31;58740;50.672;18.690;2023-01-09T18:14:39;7.76;84.71
71082;SHT31;58740;50.672;18.690;2023-01-09T18:17:09;7.76;84.70
71082;SHT31;58740;50.672;18.690;2023-01-09T18:19:39;7.72;84.72
71082;SHT31;58740;50.672;18.690;2023-01-09T18:22:07;7.71;84.76
71082;SHT31;58740;50.672;18.690;2023-01-09T18:24:35;7.69;84.68
71082;SHT31;58740;50.672;18.690;2023-01-09T18:27:03;7.67;84.74
71082;SHT31;58740;50.672;18.690;2023-01-09T18:29:31;7.66;84.83
71082;SHT31;58740;50.672;18.690;2023-01-09T18:31:58;7.65;84.76
71082;SHT31;58740;50.672;18.690;2023-01-09T18:34:26;7.62;84.67
71082;SHT31;58740;50.672;18.690;2023-01-09T18:36:54;7.59;84.72
71082;SHT31;58740;50.672;18.690;2023-01-09T18:39:22;7.56;84.71
71082;SHT31;58740;50.672;18.690;2023-01-09T18:41:50;7.54;84.75
71082;SHT31;58740;50.672;18.690;2023-01-09T18:44:17;7.51;84.81
71082;SHT31;58740;50.672;18.690;2023-01-09T18:46:48;7.49;84.81
71082;SHT31;58740;50.672;18.690;2023-01-09T18:49:16;7.45;84.78
71082;SHT31;58740;50.672;18.690;2023-01-09T18:51:43;7.46;84.90
71082;SHT31;58740;50.672;18.690;2023-01-09T18:54:11;7.45;84.88
71082;SHT31;58740;50.672;18.690;2023-01-09T18:56:39;7.44;84.77
71082;SHT31;58740;50.672;18.690;2023-01-09T18:59:07;7.43;84.82
71082;SHT31;58740;50.672;18.690;2023-01-09T19:01:35;7.39;84.80
71082;SHT31;58740;50.672;18.690;2023-01-09T19:04:03;7.37;84.80
71082;SHT31;58740;50.672;18.690;2023-01-09T19:06:31;7.33;84.74
71082;SHT31;58740;50.672;18.690;2023-01-09T19:08:59;7.30;84.71
71082;SHT31;58740;50.672;18.690;2023-01-09T19:11:27;7.26;84.83
71082;SHT31;58740;50.672;18.690;2023-01-09T19:13:55;7.22;84.72
71082;SHT31;58740;50.672;18.690;2023-01-09T19:16:23;7.18;84.86
71082;SHT31;58740;50.672;18.690;2023-01-09T19:18:51;7.14;84.81
71082;SHT31;58740;50.672;18.690;2023-01-09T19:21:19;7.12;84.91